sensor_id;sensor_type;location;lat;lon;timestamp;pressure;altitude;pressure_sealevel;temperature
75773;BMP280;64381;0.000;0.000;2022-10-31T00:00:05;95871.53;;;21.21
75773;BMP280;64381;0.000;0.000;2022-10-31T00:02:31;95870.03;;;21.20
75773;BMP280;64381;0.000;0.000;2022-10-31T00:04:56;95871.34;;;21.19
75773;BMP280;64381;0.000;0.000;2022-10-31T00:07:21;95879.84;;;21.21
75773;BMP280;64381;0.000;0.000;2022-10-31T00:09:46;95873.56;;;21.21
75773;BMP280;64381;0.000;0.000;2022-10-31T00:12:12;95871.34;;;21.19
75773;BMP280;64381;0.000;0.000;2022-10-31T00:14:37;95866.56;;;21.20
75773;BMP280;64381;0.000;0.000;2022-10-31T00:17:02;95873.56;;;21.21
75773;BMP280;64381;0.000;0.000;2022-10-31T00:19:27;95863.78;;;21.20
75773;BMP280;64381;0.000;0.000;2022-10-31T00:21:52;95863.03;;;21.19
75773;BMP280;64381;0.000;0.000;2022-10-31T00:24:18;95859.50;;;21.19
75773;BMP280;64381;0.000;0.000;2022-10-31T00:26:43;95866.56;;;21.20
75773;BMP280;64381;0.000;0.000;2022-10-31T00:29:08;95863.03;;;21.19
75773;BMP280;64381;0.000;0.000;2022-10-31T00:31:33;95856.16;;;21.20
75773;BMP280;64381;0.000;0.000;2022-10-31T00:33:58;95857.47;;;21.19
75773;BMP280;64381;0.000;0.000;2022-10-31T00:36:24;95856.16;;;21.20
75773;BMP280;64381;0.000;0.000;2022-10-31T00:38:49;95860.25;;;21.19
75773;BMP280;64381;0.000;0.000;2022-10-31T00:41:16;95858.94;;;21.20
75773;BMP280;64381;0.000;0.000;2022-10-31T00:43:42;95852.69;;;21.20
75773;BMP280;64381;0.000;0.000;2022-10-31T00:46:08;95851.19;;;21.19
75773;BMP280;64381;0.000;0.000;2022-10-31T00:48:33;95849.91;;;21.20
75773;BMP280;64381;0.000;0.000;2022-10-31T00:50:59;95844.34;;;21.20
75773;BMP280;64381;0.000;0.000;2022-10-31T00:53:24;95849.16;;;21.19
75773;BMP280;64381;0.000;0.000;2022-10-31T00:55:50;95856.16;;;21.20
75773;BMP280;64381;0.000;0.000;2022-10-31T00:58:15;95850.63;;;21.20
75773;BMP280;64381;0.000;0.000;2022-10-31T01:00:40;95856.75;;;21.19
75773;BMP280;64381;0.000;0.000;2022-10-31T01:03:06;95852.69;;;21.20
75773;BMP280;64381;0.000;0.000;2022-10-31T01:05:31;95848.41;;;21.19
75773;BMP280;64381;0.000;0.000;2022-10-31T01:07:56;95845.66;;;21.19
75773;BMP280;64381;0.000;0.000;2022-10-31T01:10:22;95846.38;;;21.19
75773;BMP280;64381;0.000;0.000;2022-10-31T01:12:48;95843.59;;;21.19
75773;BMP280;64381;0.000;0.000;2022-10-31T01:15:17;95837.50;;;21.21
75773;BMP280;64381;0.000;0.000;2022-10-31T01:17:42;95843.59;;;21.19
75773;BMP280;64381;0.000;0.000;2022-10-31T01:20:09;95841.56;;;21.20
75773;BMP280;64381;0.000;0.000;2022-10-31T01:22:34;95847.84;;;21.20
75773;BMP280;64381;0.000;0.000;2022-10-31T01:25:00;95853.97;;;21.19
75773;BMP280;64381;0.000;0.000;2022-10-31T01:27:25;95849.16;;;21.19
75773;BMP280;64381;0.000;0.000;2022-10-31T01:29:51;95847.13;;;21.20
75773;BMP280;64381;0.000;0.000;2022-10-31T01:32:16;95854.13;;;21.21
75773;BMP280;64381;0.000;0.000;2022-10-31T01:34:41;95854.72;;;21.19
75773;BMP280;64381;0.000;0.000;2022-10-31T01:37:06;95852.69;;;21.20
75773;BMP280;64381;0.000;0.000;2022-10-31T01:39:32;95854.72;;;21.19
75773;BMP280;64381;0.000;0.000;2022-10-31T01:41:57;95849.16;;;21.19
75773;BMP280;64381;0.000;0.000;2022-10-31T01:46:52;95861.53;;;21.18
75773;BMP280;64381;0.000;0.000;2022-10-31T01:51:55;95847.13;;;21.20
75773;BMP280;64381;0.000;0.000;2022-10-31T01:54:23;95843.59;;;21.19
75773;BMP280;64381;0.000;0.000;2022-10-31T01:56:52;95848.41;;;21.19
75773;BMP280;64381;0.000;0.000;2022-10-31T01:59:22;95849.16;;;21.19
75773;BMP280;64381;0.000;0.000;2022-10-31T02:01:52;95847.84;;;21.20
75773;BMP280;64381;0.000;0.000;2022-10-31T02:04:18;95846.56;;;21.21
75773;BMP280;64381;0.000;0.000;2022-10-31T02:09:12;95840.09;;;21.19
75773;BMP280;64381;0.000;0.000;2022-10-31T02:11:39;95839.53;;;21.20
75773;BMP280;64381;0.000;0.000;2022-10-31T02:14:05;95840.09;;;21.19
75773;BMP280;64381;0.000;0.000;2022-10-31T02:16:30;95840.84;;;21.19
75773;BMP280;64381;0.000;0.000;2022-10-31T02:18:56;95843.59;;;21.19
75773;BMP280;64381;0.000;0.000;2022-10-31T02:21:36;95845.06;;;21.20
75773;BMP280;64381;0.000;0.000;2022-10-31T02:38:23;95842.13;;;21.18
75773;BMP280;64381;0.000;0.000;2022-10-31T02:49:23;95840.66;;;21.17
75773;BMP280;64381;0.000;0.000;2022-10-31T02:51:50;95843.44;;;21.17
75773;BMP280;64381;0.000;0.000;2022-10-31T02:54:24;95839.34;;;21.18
75773;BMP280;64381;0.000;0.000;2022-10-31T02:56:53;95842.13;;;21.18
75773;BMP280;64381;0.000;0.000;2022-10-31T02:59:20;95842.13;;;21.18
75773;BMP280;64381;0.000;0.000;2022-10-31T03:10:41;95842.88;;;21.19
75773;BMP280;64381;0.000;0.000;2022-10-31T03:13:11;95844.91;;;21.18
75773;BMP280;64381;0.000;0.000;2022-10-31T03:15:42;95837.31;;;21.19
75773;BMP280;64381;0.000;0.000;2022-10-31T03:23:26;95841.41;;;21.18
75773;BMP280;64381;0.000;0.000;2022-10-31T03:25:53;95846.38;;;21.19
75773;BMP280;64381;0.000;0.000;2022-10-31T03:28:25;95836.03;;;21.20
75773;BMP280;64381;0.000;0.000;2022-10-31T03:30:53;95842.88;;;21.19
75773;BMP280;64381;0.000;0.000;2022-10-31T03:33:26;95845.06;;;21.20
75773;BMP280;64381;0.000;0.000;2022-10-31T03:35:53;95847.84;;;21.20
75773;BMP280;64381;0.000;0.000;2022-10-31T03:38:20;95840.84;;;21.19
75773;BMP280;64381;0.000;0.000;2022-10-31T03:40:47;95843.59;;;21.19
75773;BMP280;64381;0.000;0.000;2022-10-31T03:43:19;95844.34;;;21.20
75773;BMP280;64381;0.000;0.000;2022-10-31T03:45:47;95840.09;;;21.19
75773;BMP280;64381;0.000;0.000;2022-10-31T03:48:14;95843.59;;;21.19
75773;BMP280;64381;0.000;0.000;2022-10-31T03:50:48;95833.25;;;21.20
75773;BMP280;64381;0.000;0.000;2022-10-31T03:53:21;95838.06;;;21.19
75773;BMP280;64381;0.000;0.000;2022-10-31T03:55:59;95839.34;;;21.18
75773;BMP280;64381;0.000;0.000;2022-10-31T03:58:32;95836.56;;;21.18
75773;BMP280;64381;0.000;0.000;2022-10-31T04:01:00;95840.09;;;21.19
75773;BMP280;64381;0.000;0.000;2022-10-31T04:03:30;95837.31;;;21.19
75773;BMP280;64381;0.000;0.000;2022-10-31T04:06:02;95841.56;;;21.20
75773;BMP280;64381;0.000;0.000;2022-10-31T04:08:30;95845.66;;;21.19
75773;BMP280;64381;0.000;0.000;2022-10-31T04:10:59;95836.03;;;21.20
75773;BMP280;64381;0.000;0.000;2022-10-31T04:13:30;95842.13;;;21.18
75773;BMP280;64381;0.000;0.000;2022-10-31T04:15:57;95842.88;;;21.19
75773;BMP280;64381;0.000;0.000;2022-10-31T04:18:23;95854.72;;;21.19
75773;BMP280;64381;0.000;0.000;2022-10-31T04:20:49;95849.91;;;21.20
75773;BMP280;64381;0.000;0.000;2022-10-31T04:23:25;95848.41;;;21.19
75773;BMP280;64381;0.000;0.000;2022-10-31T04:25:51;95853.97;;;21.19
75773;BMP280;64381;0.000;0.000;2022-10-31T04:28:16;95849.16;;;21.19
75773;BMP280;64381;0.000;0.000;2022-10-31T04:30:41;95849.00;;;21.17
75773;BMP280;64381;0.000;0.000;2022-10-31T04:33:06;95849.16;;;21.19
75773;BMP280;64381;0.000;0.000;2022-10-31T04:35:32;95853.22;;;21.18
75773;BMP280;64381;0.000;0.000;2022-10-31T04:37:57;95853.97;;;21.19
75773;BMP280;64381;0.000;0.000;2022-10-31T04:40:22;95853.78;;;21.17
75773;BMP280;64381;0.000;0.000;2022-10-31T04:42:47;95861.53;;;21.18
75773;BMP280;64381;0.000;0.000;2022-10-31T04:45:13;95858.78;;;21.18
75773;BMP280;64381;0.000;0.000;2022-10-31T04:47:38;95857.31;;;21.17
75773;BMP280;64381;0.000;0.000;2022-10-31T04:50:03;95863.59;;;21.18
75773;BMP280;64381;0.000;0.000;2022-10-31T04:52:29;95861.53;;;21.18
75773;BMP280;64381;0.000;0.000;2022-10-31T04:54:54;95861.53;;;21.18
75773;BMP280;64381;0.000;0.000;2022-10-31T04:57:20;95853.97;;;21.19
75773;BMP280;64381;0.000;0.000;2022-10-31T04:59:45;95853.78;;;21.17
75773;BMP280;64381;0.000;0.000;2022-10-31T05:02:10;95852.50;;;21.18
75773;BMP280;64381;0.000;0.000;2022-10-31T05:04:35;95851.75;;;21.17
75773;BMP280;64381;0.000;0.000;2022-10-31T05:07:00;95856.56;;;21.17
75773;BMP280;64381;0.000;0.000;2022-10-31T05:09:26;95844.72;;;21.16
75773;BMP280;64381;0.000;0.000;2022-10-31T05:11:51;95851.75;;;21.17
75773;BMP280;64381;0.000;0.000;2022-10-31T05:14:16;95851.00;;;21.17
75773;BMP280;64381;0.000;0.000;2022-10-31T05:16:41;95854.53;;;21.17
75773;BMP280;64381;0.000;0.000;2022-10-31T05:19:06;95849.72;;;21.18
75773;BMP280;64381;0.000;0.000;2022-10-31T05:21:32;95849.16;;;21.19
75773;BMP280;64381;0.000;0.000;2022-10-31T05:23:57;95843.44;;;21.17
75773;BMP280;64381;0.000;0.000;2022-10-31T05:26:22;95840.66;;;21.17
75773;BMP280;64381;0.000;0.000;2022-10-31T05:28:47;95835.13;;;21.17
75773;BMP280;64381;0.000;0.000;2022-10-31T05:31:13;95837.88;;;21.17
75773;BMP280;64381;0.000;0.000;2022-10-31T05:33:38;95833.09;;;21.18
75773;BMP280;64381;0.000;0.000;2022-10-31T05:36:03;95837.88;;;21.17
75773;BMP280;64381;0.000;0.000;2022-10-31T05:38:29;95829.56;;;21.17
75773;BMP280;64381;0.000;0.000;2022-10-31T05:40:55;95833.81;;;21.18
75773;BMP280;64381;0.000;0.000;2022-10-31T05:43:21;95835.13;;;21.17
75773;BMP280;64381;0.000;0.000;2022-10-31T05:45:46;95833.09;;;21.18
75773;BMP280;64381;0.000;0.000;2022-10-31T05:48:11;95832.34;;;21.17
75773;BMP280;64381;0.000;0.000;2022-10-31T05:50:36;95829.56;;;21.17
75773;BMP280;64381;0.000;0.000;2022-10-31T05:53:04;95840.84;;;21.19
75773;BMP280;64381;0.000;0.000;2022-10-31T05:55:30;95836.56;;;21.18
75773;BMP280;64381;0.000;0.000;2022-10-31T05:57:55;95838.06;;;21.19
75773;BMP280;64381;0.000;0.000;2022-10-31T06:00:22;95843.59;;;21.19
75773;BMP280;64381;0.000;0.000;2022-10-31T06:02:48;95840.84;;;21.19
75773;BMP280;64381;0.000;0.000;2022-10-31T06:05:14;95838.81;;;21.20
75773;BMP280;64381;0.000;0.000;2022-10-31T06:07:39;95846.97;;;21.18
75773;BMP280;64381;0.000;0.000;2022-10-31T06:10:06;95837.88;;;21.17
75773;BMP280;64381;0.000;0.000;2022-10-31T06:12:32;95837.16;;;21.17
75773;BMP280;64381;0.000;0.000;2022-10-31T06:14:58;95841.41;;;21.18
75773;BMP280;64381;0.000;0.000;2022-10-31T06:17:23;95839.91;;;21.17
75773;BMP280;64381;0.000;0.000;2022-10-31T06:19:48;95837.88;;;21.17
75773;BMP280;64381;0.000;0.000;2022-10-31T06:22:13;95840.09;;;21.19
75773;BMP280;64381;0.000;0.000;2022-10-31T06:24:39;95842.13;;;21.18
75773;BMP280;64381;0.000;0.000;2022-10-31T06:27:05;95841.41;;;21.18
75773;BMP280;64381;0.000;0.000;2022-10-31T06:29:30;95837.69;;;21.15
75773;BMP280;64381;0.000;0.000;2022-10-31T06:31:55;95841.94;;;21.16
75773;BMP280;64381;0.000;0.000;2022-10-31T06:34:20;95840.47;;;21.15
75773;BMP280;64381;0.000;0.000;2022-10-31T06:36:46;95838.63;;;21.18
75773;BMP280;64381;0.000;0.000;2022-10-31T06:39:12;95843.03;;;21.21
75773;BMP280;64381;0.000;0.000;2022-10-31T06:41:37;95839.69;;;21.22
75773;BMP280;64381;0.000;0.000;2022-10-31T06:44:02;95843.94;;;21.23
75773;BMP280;64381;0.000;0.000;2022-10-31T06:46:28;95846.31;;;21.27
75773;BMP280;64381;0.000;0.000;2022-10-31T06:48:53;95845.78;;;21.28
75773;BMP280;64381;0.000;0.000;2022-10-31T06:51:18;95845.41;;;21.32
75773;BMP280;64381;0.000;0.000;2022-10-31T06:53:43;95840.03;;;21.34
75773;BMP280;64381;0.000;0.000;2022-10-31T06:56:08;95840.19;;;21.36
75773;BMP280;64381;0.000;0.000;2022-10-31T06:58:34;95837.63;;;21.38
75773;BMP280;64381;0.000;0.000;2022-10-31T07:01:00;95847.56;;;21.41
75773;BMP280;64381;0.000;0.000;2022-10-31T07:03:25;95835.91;;;21.42
75773;BMP280;64381;0.000;0.000;2022-10-31T07:05:50;95835.34;;;21.44
75773;BMP280;64381;0.000;0.000;2022-10-31T07:08:16;95850.13;;;21.46
75773;BMP280;64381;0.000;0.000;2022-10-31T07:10:42;95841.25;;;21.48
75773;BMP280;64381;0.000;0.000;2022-10-31T07:13:12;95848.44;;;21.51
75773;BMP280;64381;0.000;0.000;2022-10-31T07:15:40;95846.41;;;21.51
75773;BMP280;64381;0.000;0.000;2022-10-31T07:18:07;95847.88;;;21.52
75773;BMP280;64381;0.000;0.000;2022-10-31T07:20:33;95844.56;;;21.54
75773;BMP280;64381;0.000;0.000;2022-10-31T07:22:59;95855.09;;;21.55
75773;BMP280;64381;0.000;0.000;2022-10-31T07:25:24;95850.28;;;21.56
75773;BMP280;64381;0.000;0.000;2022-10-31T07:27:50;95853.78;;;21.56
75773;BMP280;64381;0.000;0.000;2022-10-31T07:30:16;95855.28;;;21.57
75773;BMP280;64381;0.000;0.000;2022-10-31T07:32:43;95845.59;;;21.58
75773;BMP280;64381;0.000;0.000;2022-10-31T07:35:11;95851.91;;;21.59
75773;BMP280;64381;0.000;0.000;2022-10-31T07:37:37;95843.78;;;21.61
75773;BMP280;64381;0.000;0.000;2022-10-31T07:40:03;95847.09;;;21.59
75773;BMP280;64381;0.000;0.000;2022-10-31T07:42:29;95847.84;;;21.60
75773;BMP280;64381;0.000;0.000;2022-10-31T07:44:59;95850.06;;;21.61
75773;BMP280;64381;0.000;0.000;2022-10-31T07:47:24;95849.31;;;21.61
75773;BMP280;64381;0.000;0.000;2022-10-31T07:49:49;95850.78;;;21.62
75773;BMP280;64381;0.000;0.000;2022-10-31T07:52:14;95857.81;;;21.63
75773;BMP280;64381;0.000;0.000;2022-10-31T07:54:40;95848.00;;;21.62
75773;BMP280;64381;0.000;0.000;2022-10-31T07:57:05;95841.31;;;21.65
75773;BMP280;64381;0.000;0.000;2022-10-31T07:59:30;95846.13;;;21.64
75773;BMP280;64381;0.000;0.000;2022-10-31T08:01:55;95835.78;;;21.65
75773;BMP280;64381;0.000;0.000;2022-10-31T08:04:20;95833.75;;;21.66
75773;BMP280;64381;0.000;0.000;2022-10-31T08:06:46;95840.00;;;21.66
75773;BMP280;64381;0.000;0.000;2022-10-31T08:09:11;95838.16;;;21.69
75773;BMP280;64381;0.000;0.000;2022-10-31T08:11:36;95836.69;;;21.68
75773;BMP280;64381;0.000;0.000;2022-10-31T08:14:01;95831.13;;;21.68
75773;BMP280;64381;0.000;0.000;2022-10-31T08:16:26;95829.09;;;21.68
75773;BMP280;64381;0.000;0.000;2022-10-31T08:18:52;95824.84;;;21.67
75773;BMP280;64381;0.000;0.000;2022-10-31T08:21:17;95815.97;;;21.69
75773;BMP280;64381;0.000;0.000;2022-10-31T08:23:42;95815.38;;;21.70
75773;BMP280;64381;0.000;0.000;2022-10-31T08:26:07;95809.13;;;21.70
75773;BMP280;64381;0.000;0.000;2022-10-31T08:28:33;95804.84;;;21.69
75773;BMP280;64381;0.000;0.000;2022-10-31T08:30:58;95798.00;;;21.70
75773;BMP280;64381;0.000;0.000;2022-10-31T08:33:24;95802.25;;;21.71
75773;BMP280;64381;0.000;0.000;2022-10-31T08:35:49;95805.03;;;21.71
75773;BMP280;64381;0.000;0.000;2022-10-31T08:38:14;95802.97;;;21.71
75773;BMP280;64381;0.000;0.000;2022-10-31T08:40:39;95793.16;;;21.70
75773;BMP280;64381;0.000;0.000;2022-10-31T08:43:11;95802.41;;;21.73
75773;BMP280;64381;0.000;0.000;2022-10-31T08:45:37;95791.84;;;21.71
75773;BMP280;64381;0.000;0.000;2022-10-31T08:48:04;95789.81;;;21.72
75773;BMP280;64381;0.000;0.000;2022-10-31T08:50:31;95791.31;;;21.73
75773;BMP280;64381;0.000;0.000;2022-10-31T08:53:23;95788.69;;;21.75
75773;BMP280;64381;0.000;0.000;2022-10-31T08:55:48;95788.53;;;21.73
75773;BMP280;64381;0.000;0.000;2022-10-31T08:58:18;95784.44;;;21.74
75773;BMP280;64381;0.000;0.000;2022-10-31T09:00:46;95781.09;;;21.75
75773;BMP280;64381;0.000;0.000;2022-10-31T09:03:14;95776.28;;;21.76
75773;BMP280;64381;0.000;0.000;2022-10-31T09:05:40;95781.09;;;21.75
75773;BMP280;64381;0.000;0.000;2022-10-31T09:08:06;95778.31;;;21.75
75773;BMP280;64381;0.000;0.000;2022-10-31T09:10:34;95775.56;;;21.75
75773;BMP280;64381;0.000;0.000;2022-10-31T09:13:11;95772.94;;;21.77
75773;BMP280;64381;0.000;0.000;2022-10-31T09:15:39;95766.66;;;21.77
75773;BMP280;64381;0.000;0.000;2022-10-31T09:18:08;95766.66;;;21.77
75773;BMP280;64381;0.000;0.000;2022-10-31T09:20:34;95768.09;;;21.78
75773;BMP280;64381;0.000;0.000;2022-10-31T09:23:05;95763.28;;;21.78
75773;BMP280;64381;0.000;0.000;2022-10-31T09:25:30;95759.78;;;21.78
75773;BMP280;64381;0.000;0.000;2022-10-31T09:27:57;95761.13;;;21.77
75773;BMP280;64381;0.000;0.000;2022-10-31T09:30:24;95757.00;;;21.78
75773;BMP280;64381;0.000;0.000;2022-10-31T09:32:57;95762.75;;;21.80
75773;BMP280;64381;0.000;0.000;2022-10-31T09:35:23;95754.22;;;21.78
75773;BMP280;64381;0.000;0.000;2022-10-31T09:38:12;95751.63;;;21.80
75773;BMP280;64381;0.000;0.000;2022-10-31T09:40:40;95743.84;;;21.78
75773;BMP280;64381;0.000;0.000;2022-10-31T09:45:56;95746.25;;;21.82
75773;BMP280;64381;0.000;0.000;2022-10-31T09:51:30;95737.19;;;21.81
75773;BMP280;64381;0.000;0.000;2022-10-31T09:56:31;95739.41;;;21.83
75773;BMP280;64381;0.000;0.000;2022-10-31T09:58:59;95746.41;;;21.84
75773;BMP280;64381;0.000;0.000;2022-10-31T10:01:44;95733.25;;;21.84
75773;BMP280;64381;0.000;0.000;2022-10-31T10:06:56;95729.56;;;21.82
75773;BMP280;64381;0.000;0.000;2022-10-31T10:09:25;95730.31;;;21.82
75773;BMP280;64381;0.000;0.000;2022-10-31T10:12:06;95734.41;;;21.81
75773;BMP280;64381;0.000;0.000;2022-10-31T10:17:11;95726.31;;;21.76
75773;BMP280;64381;0.000;0.000;2022-10-31T10:22:47;95727.44;;;21.73
75773;BMP280;64381;0.000;0.000;2022-10-31T10:25:37;95724.66;;;21.73
75773;BMP280;64381;0.000;0.000;2022-10-31T10:28:11;95725.22;;;21.71
75773;BMP280;64381;0.000;0.000;2022-10-31T10:30:58;95728.59;;;21.70
75773;BMP280;64381;0.000;0.000;2022-10-31T10:33:33;95724.50;;;21.71
75773;BMP280;64381;0.000;0.000;2022-10-31T10:36:03;95719.53;;;21.69
75773;BMP280;64381;0.000;0.000;2022-10-31T10:41:18;95716.34;;;21.73
75773;BMP280;64381;0.000;0.000;2022-10-31T10:43:43;95716.34;;;21.73
75773;BMP280;64381;0.000;0.000;2022-10-31T10:48:54;95710.94;;;21.75
75773;BMP280;64381;0.000;0.000;2022-10-31T10:51:36;95708.75;;;21.73
75773;BMP280;64381;0.000;0.000;2022-10-31T10:54:13;95716.50;;;21.75
75773;BMP280;64381;0.000;0.000;2022-10-31T10:56:59;95708.91;;;21.75
75773;BMP280;64381;0.000;0.000;2022-10-31T10:59:25;95704.66;;;21.74
75773;BMP280;64381;0.000;0.000;2022-10-31T11:01:51;95706.13;;;21.75
75773;BMP280;64381;0.000;0.000;2022-10-31T11:04:35;95694.47;;;21.77
75773;BMP280;64381;0.000;0.000;2022-10-31T11:07:07;95690.22;;;21.76
75773;BMP280;64381;0.000;0.000;2022-10-31T11:09:33;95689.47;;;21.75
75773;BMP280;64381;0.000;0.000;2022-10-31T11:11:59;95680.59;;;21.77
75773;BMP280;64381;0.000;0.000;2022-10-31T11:14:26;95683.38;;;21.77
75773;BMP280;64381;0.000;0.000;2022-10-31T11:17:07;95680.59;;;21.77
75773;BMP280;64381;0.000;0.000;2022-10-31T11:19:34;95679.97;;;21.78
75773;BMP280;64381;0.000;0.000;2022-10-31T11:22:15;95673.69;;;21.78
75773;BMP280;64381;0.000;0.000;2022-10-31T11:24:41;95674.44;;;21.78
75773;BMP280;64381;0.000;0.000;2022-10-31T11:27:20;95672.41;;;21.79
75773;BMP280;64381;0.000;0.000;2022-10-31T11:29:46;95668.00;;;21.76
75773;BMP280;64381;0.000;0.000;2022-10-31T11:32:19;95672.25;;;21.77
75773;BMP280;64381;0.000;0.000;2022-10-31T11:34:48;95661.16;;;21.77
75773;BMP280;64381;0.000;0.000;2022-10-31T11:37:17;95663.94;;;21.77
75773;BMP280;64381;0.000;0.000;2022-10-31T11:39:45;95659.09;;;21.77
75773;BMP280;64381;0.000;0.000;2022-10-31T11:42:13;95658.50;;;21.79
75773;BMP280;64381;0.000;0.000;2022-10-31T11:44:42;95658.50;;;21.79
75773;BMP280;64381;0.000;0.000;2022-10-31T11:47:12;95661.28;;;21.79
75773;BMP280;64381;0.000;0.000;2022-10-31T11:49:40;95654.44;;;21.80
75773;BMP280;64381;0.000;0.000;2022-10-31T11:52:41;95650.19;;;21.79
75773;BMP280;64381;0.000;0.000;2022-10-31T11:57:47;95636.28;;;21.79
75773;BMP280;64381;0.000;0.000;2022-10-31T12:00:28;95642.03;;;21.81
75773;BMP280;64381;0.000;0.000;2022-10-31T12:03:26;95640.56;;;21.80
75773;BMP280;64381;0.000;0.000;2022-10-31T12:06:00;95630.00;;;21.78
75773;BMP280;64381;0.000;0.000;2022-10-31T12:08:34;95634.44;;;21.81
75773;BMP280;64381;0.000;0.000;2022-10-31T12:11:41;95631.09;;;21.83
75773;BMP280;64381;0.000;0.000;2022-10-31T12:19:39;95624.78;;;21.82
75773;BMP280;64381;0.000;0.000;2022-10-31T12:27:59;95611.06;;;21.84
75773;BMP280;64381;0.000;0.000;2022-10-31T12:30:38;95614.44;;;21.83
75773;BMP280;64381;0.000;0.000;2022-10-31T12:36:15;95607.72;;;21.86
75773;BMP280;64381;0.000;0.000;2022-10-31T12:41:42;95605.13;;;21.88
75773;BMP280;64381;0.000;0.000;2022-10-31T12:50:34;95590.50;;;21.87
75773;BMP280;64381;0.000;0.000;2022-10-31T12:58:26;95581.00;;;21.90
75773;BMP280;64381;0.000;0.000;2022-10-31T13:01:02;95581.75;;;21.91
75773;BMP280;64381;0.000;0.000;2022-10-31T13:03:35;95565.81;;;21.91
75773;BMP280;64381;0.000;0.000;2022-10-31T13:06:08;95573.59;;;21.93
75773;BMP280;64381;0.000;0.000;2022-10-31T13:08:42;95565.25;;;21.93
75773;BMP280;64381;0.000;0.000;2022-10-31T13:16:37;95555.03;;;21.95
75773;BMP280;64381;0.000;0.000;2022-10-31T13:24:22;95556.34;;;21.94
75773;BMP280;64381;0.000;0.000;2022-10-31T13:26:53;95550.78;;;21.94
75773;BMP280;64381;0.000;0.000;2022-10-31T13:29:44;95559.13;;;21.94
75773;BMP280;64381;0.000;0.000;2022-10-31T13:32:11;95551.19;;;21.91
75773;BMP280;64381;0.000;0.000;2022-10-31T13:34:42;95536.81;;;22.02
75773;BMP280;64381;0.000;0.000;2022-10-31T13:37:33;95546.28;;;22.79
75773;BMP280;64381;0.000;0.000;2022-10-31T13:40:34;95538.63;;;23.92
75773;BMP280;64381;0.000;0.000;2022-10-31T13:45:53;95541.72;;;26.73
75773;BMP280;64381;0.000;0.000;2022-10-31T13:48:33;95536.78;;;27.45
75773;BMP280;64381;0.000;0.000;2022-10-31T13:51:04;95525.81;;;27.99
75773;BMP280;64381;0.000;0.000;2022-10-31T13:53:56;95527.88;;;27.74
75773;BMP280;64381;0.000;0.000;2022-10-31T13:56:27;95527.72;;;27.21
75773;BMP280;64381;0.000;0.000;2022-10-31T13:59:17;95519.41;;;26.98
75773;BMP280;64381;0.000;0.000;2022-10-31T14:04:16;95525.03;;;28.24
75773;BMP280;64381;0.000;0.000;2022-10-31T14:11:48;95518.47;;;27.56
75773;BMP280;64381;0.000;0.000;2022-10-31T14:14:14;95521.38;;;27.58
75773;BMP280;64381;0.000;0.000;2022-10-31T14:16:43;95514.59;;;27.49
75773;BMP280;64381;0.000;0.000;2022-10-31T14:19:18;95512.81;;;27.42
75773;BMP280;64381;0.000;0.000;2022-10-31T14:21:46;95505.28;;;27.33
75773;BMP280;64381;0.000;0.000;2022-10-31T14:29:28;95507.38;;;27.58
75773;BMP280;64381;0.000;0.000;2022-10-31T14:34:34;95497.91;;;27.90
75773;BMP280;64381;0.000;0.000;2022-10-31T14:50:53;95483.22;;;28.03
75773;BMP280;64381;0.000;0.000;2022-10-31T14:53:23;95476.13;;;28.02
75773;BMP280;64381;0.000;0.000;2022-10-31T14:55:54;95461.72;;;27.94
75773;BMP280;64381;0.000;0.000;2022-10-31T14:58:23;95466.50;;;28.05
75773;BMP280;64381;0.000;0.000;2022-10-31T15:00:54;95464.50;;;28.07
75773;BMP280;64381;0.000;0.000;2022-10-31T15:03:42;95468.06;;;27.94
75773;BMP280;64381;0.000;0.000;2022-10-31T15:06:17;95463.06;;;27.54
75773;BMP280;64381;0.000;0.000;2022-10-31T15:08:54;95461.66;;;27.41
75773;BMP280;64381;0.000;0.000;2022-10-31T15:11:21;95462.94;;;27.27
75773;BMP280;64381;0.000;0.000;2022-10-31T15:13:57;95469.84;;;27.01
75773;BMP280;64381;0.000;0.000;2022-10-31T15:16:26;95454.66;;;27.29
75773;BMP280;64381;0.000;0.000;2022-10-31T15:19:04;95451.38;;;27.46
75773;BMP280;64381;0.000;0.000;2022-10-31T15:21:30;95454.03;;;27.56
75773;BMP280;64381;0.000;0.000;2022-10-31T15:23:58;95445.28;;;27.49
75773;BMP280;64381;0.000;0.000;2022-10-31T15:26:28;95446.22;;;27.04
75773;BMP280;64381;0.000;0.000;2022-10-31T15:29:00;95440.19;;;26.84
75773;BMP280;64381;0.000;0.000;2022-10-31T15:31:26;95445.66;;;27.19
75773;BMP280;64381;0.000;0.000;2022-10-31T15:33:52;95438.97;;;27.37
75773;BMP280;64381;0.000;0.000;2022-10-31T15:36:21;95443.69;;;27.46
75773;BMP280;64381;0.000;0.000;2022-10-31T15:38:46;95436.97;;;27.52
75773;BMP280;64381;0.000;0.000;2022-10-31T15:41:31;95436.50;;;27.05
75773;BMP280;64381;0.000;0.000;2022-10-31T15:44:10;95436.50;;;26.93
75773;BMP280;64381;0.000;0.000;2022-10-31T15:46:37;95434.94;;;27.27
75773;BMP280;64381;0.000;0.000;2022-10-31T15:49:02;95437.16;;;27.42
75773;BMP280;64381;0.000;0.000;2022-10-31T15:51:31;95433.44;;;27.51
75773;BMP280;64381;0.000;0.000;2022-10-31T15:53:57;95433.38;;;27.37
75773;BMP280;64381;0.000;0.000;2022-10-31T15:56:30;95436.81;;;26.99
75773;BMP280;64381;0.000;0.000;2022-10-31T15:58:57;95434.34;;;26.80
75773;BMP280;64381;0.000;0.000;2022-10-31T16:01:28;95438.09;;;27.21
75773;BMP280;64381;0.000;0.000;2022-10-31T16:06:37;95435.81;;;27.43
75773;BMP280;64381;0.000;0.000;2022-10-31T16:09:17;95433.75;;;27.43
75773;BMP280;64381;0.000;0.000;2022-10-31T16:11:44;95432.94;;;27.04
75773;BMP280;64381;0.000;0.000;2022-10-31T16:16:42;95441.63;;;27.47
75773;BMP280;64381;0.000;0.000;2022-10-31T16:19:17;95426.63;;;27.54
75773;BMP280;64381;0.000;0.000;2022-10-31T16:21:44;95435.38;;;27.74
75773;BMP280;64381;0.000;0.000;2022-10-31T16:26:49;95437.88;;;27.42
75773;BMP280;64381;0.000;0.000;2022-10-31T16:29:32;95436.44;;;27.16
75773;BMP280;64381;0.000;0.000;2022-10-31T16:31:58;95441.38;;;27.29
75773;BMP280;64381;0.000;0.000;2022-10-31T16:34:23;95442.03;;;27.16
75773;BMP280;64381;0.000;0.000;2022-10-31T16:36:48;95446.06;;;27.13
75773;BMP280;64381;0.000;0.000;2022-10-31T16:39:14;95443.94;;;27.25
75773;BMP280;64381;0.000;0.000;2022-10-31T16:41:41;95443.84;;;27.23
75773;BMP280;64381;0.000;0.000;2022-10-31T16:44:33;95449.97;;;27.08
75773;BMP280;64381;0.000;0.000;2022-10-31T16:49:33;95452.56;;;26.93
75773;BMP280;64381;0.000;0.000;2022-10-31T16:51:58;95449.03;;;27.04
75773;BMP280;64381;0.000;0.000;2022-10-31T16:54:23;95455.53;;;27.20
75773;BMP280;64381;0.000;0.000;2022-10-31T16:56:49;95444.94;;;27.43
75773;BMP280;64381;0.000;0.000;2022-10-31T16:59:14;95454.03;;;27.69
75773;BMP280;64381;0.000;0.000;2022-10-31T17:01:40;95448.47;;;27.83